sensor_id;sensor_type;location;lat;lon;timestamp;temperature;humidity
12959;DHT22;6544;51.666;6.634;2023-06-14T00:00:03;20.70;99.90
12959;DHT22;6544;51.666;6.634;2023-06-14T00:02:30;20.80;99.90
12959;DHT22;6544;51.666;6.634;2023-06-14T00:04:57;20.70;99.90
12959;DHT22;6544;51.666;6.634;2023-06-14T00:07:34;20.60;99.90
12959;DHT22;6544;51.666;6.634;2023-06-14T00:10:01;20.60;99.90
12959;DHT22;6544;51.666;6.634;2023-06-14T00:12:29;20.50;99.90
12959;DHT22;6544;51.666;6.634;2023-06-14T00:14:56;20.60;99.90
12959;DHT22;6544;51.666;6.634;2023-06-14T00:17:24;20.60;99.90
12959;DHT22;6544;51.666;6.634;2023-06-14T00:19:55;20.60;99.90
12959;DHT22;6544;51.666;6.634;2023-06-14T00:22:23;20.50;99.90
12959;DHT22;6544;51.666;6.634;2023-06-14T00:24:51;20.50;99.90
12959;DHT22;6544;51.666;6.634;2023-06-14T00:27:18;20.20;99.90
12959;DHT22;6544;51.666;6.634;2023-06-14T00:29:45;20.20;99.90
12959;DHT22;6544;51.666;6.634;2023-06-14T00:32:12;20.30;99.90
12959;DHT22;6544;51.666;6.634;2023-06-14T00:34:40;20.20;99.90
12959;DHT22;6544;51.666;6.634;2023-06-14T00:37:07;20.30;99.90
12959;DHT22;6544;51.666;6.634;2023-06-14T00:39:34;20.20;99.90
12959;DHT22;6544;51.666;6.634;2023-06-14T00:42:01;20.10;99.90
12959;DHT22;6544;51.666;6.634;2023-06-14T00:44:28;20.00;99.90
12959;DHT22;6544;51.666;6.634;2023-06-14T00:46:55;20.00;99.90
12959;DHT22;6544;51.666;6.634;2023-06-14T00:49:21;20.00;99.90
12959;DHT22;6544;51.666;6.634;2023-06-14T00:51:50;20.20;99.90
12959;DHT22;6544;51.666;6.634;2023-06-14T00:54:17;20.20;99.90
12959;DHT22;6544;51.666;6.634;2023-06-14T00:56:44;20.20;99.90
12959;DHT22;6544;51.666;6.634;2023-06-14T00:59:11;20.20;99.90
12959;DHT22;6544;51.666;6.634;2023-06-14T01:01:38;20.30;99.90
12959;DHT22;6544;51.666;6.634;2023-06-14T01:04:05;20.20;99.90
12959;DHT22;6544;51.666;6.634;2023-06-14T01:06:39;20.20;99.90
12959;DHT22;6544;51.666;6.634;2023-06-14T01:09:15;20.10;99.90
12959;DHT22;6544;51.666;6.634;2023-06-14T01:11:50;20.00;99.90
12959;DHT22;6544;51.666;6.634;2023-06-14T01:14:21;20.00;99.90
12959;DHT22;6544;51.666;6.634;2023-06-14T01:16:48;20.00;99.90
12959;DHT22;6544;51.666;6.634;2023-06-14T01:19:19;19.90;99.90
12959;DHT22;6544;51.666;6.634;2023-06-14T01:21:48;19.90;99.90
12959;DHT22;6544;51.666;6.634;2023-06-14T01:24:18;19.80;99.90
12959;DHT22;6544;51.666;6.634;2023-06-14T01:26:49;19.90;99.90
12959;DHT22;6544;51.666;6.634;2023-06-14T01:29:22;19.80;99.90
12959;DHT22;6544;51.666;6.634;2023-06-14T01:31:49;19.90;99.90
12959;DHT22;6544;51.666;6.634;2023-06-14T01:34:16;19.90;99.90
12959;DHT22;6544;51.666;6.634;2023-06-14T01:36:44;19.80;99.90
12959;DHT22;6544;51.666;6.634;2023-06-14T01:39:12;19.80;99.90
12959;DHT22;6544;51.666;6.634;2023-06-14T01:41:42;19.90;99.90
12959;DHT22;6544;51.666;6.634;2023-06-14T01:44:10;19.80;99.90
12959;DHT22;6544;51.666;6.634;2023-06-14T01:46:39;19.80;99.90
12959;DHT22;6544;51.666;6.634;2023-06-14T01:49:07;19.90;99.90
12959;DHT22;6544;51.666;6.634;2023-06-14T01:51:34;19.90;99.90
12959;DHT22;6544;51.666;6.634;2023-06-14T01:54:02;19.90;99.90
12959;DHT22;6544;51.666;6.634;2023-06-14T01:56:30;19.90;99.90
12959;DHT22;6544;51.666;6.634;2023-06-14T01:58:59;19.70;99.90
12959;DHT22;6544;51.666;6.634;2023-06-14T02:01:27;19.80;99.90
12959;DHT22;6544;51.666;6.634;2023-06-14T02:03:54;19.70;99.90
12959;DHT22;6544;51.666;6.634;2023-06-14T02:06:21;19.70;99.90
12959;DHT22;6544;51.666;6.634;2023-06-14T02:08:47;19.70;99.90
12959;DHT22;6544;51.666;6.634;2023-06-14T02:11:15;19.60;99.90
12959;DHT22;6544;51.666;6.634;2023-06-14T02:13:42;19.70;99.90
12959;DHT22;6544;51.666;6.634;2023-06-14T02:16:10;19.70;99.90
12959;DHT22;6544;51.666;6.634;2023-06-14T02:18:37;19.70;99.90
12959;DHT22;6544;51.666;6.634;2023-06-14T02:21:04;19.70;99.90
12959;DHT22;6544;51.666;6.634;2023-06-14T02:23:31;19.60;99.90
12959;DHT22;6544;51.666;6.634;2023-06-14T02:25:59;19.60;99.90
12959;DHT22;6544;51.666;6.634;2023-06-14T02:28:25;19.60;99.90
12959;DHT22;6544;51.666;6.634;2023-06-14T02:30:52;19.50;99.90
12959;DHT22;6544;51.666;6.634;2023-06-14T02:33:20;19.40;99.90
12959;DHT22;6544;51.666;6.634;2023-06-14T02:35:50;19.40;99.90
12959;DHT22;6544;51.666;6.634;2023-06-14T02:38:18;19.40;99.90
12959;DHT22;6544;51.666;6.634;2023-06-14T02:40:45;19.30;99.90
12959;DHT22;6544;51.666;6.634;2023-06-14T02:43:12;19.40;99.90
12959;DHT22;6544;51.666;6.634;2023-06-14T02:45:39;19.30;99.90
12959;DHT22;6544;51.666;6.634;2023-06-14T02:48:06;19.20;99.90
12959;DHT22;6544;51.666;6.634;2023-06-14T02:50:34;19.10;99.90
12959;DHT22;6544;51.666;6.634;2023-06-14T02:53:01;19.20;99.90
12959;DHT22;6544;51.666;6.634;2023-06-14T02:55:28;19.10;99.90
12959;DHT22;6544;51.666;6.634;2023-06-14T02:57:55;19.00;99.90
12959;DHT22;6544;51.666;6.634;2023-06-14T03:00:22;19.00;99.90
12959;DHT22;6544;51.666;6.634;2023-06-14T03:02:49;19.00;99.90
12959;DHT22;6544;51.666;6.634;2023-06-14T03:05:17;18.80;99.90
12959;DHT22;6544;51.666;6.634;2023-06-14T03:07:48;18.70;99.90
12959;DHT22;6544;51.666;6.634;2023-06-14T03:10:16;18.70;99.90
12959;DHT22;6544;51.666;6.634;2023-06-14T03:12:42;18.70;99.90
12959;DHT22;6544;51.666;6.634;2023-06-14T03:15:10;18.70;99.90
12959;DHT22;6544;51.666;6.634;2023-06-14T03:17:38;18.80;99.90
12959;DHT22;6544;51.666;6.634;2023-06-14T03:20:07;18.80;99.90
12959;DHT22;6544;51.666;6.634;2023-06-14T03:22:34;18.70;99.90
12959;DHT22;6544;51.666;6.634;2023-06-14T03:25:03;18.70;99.90
12959;DHT22;6544;51.666;6.634;2023-06-14T03:27:30;18.70;99.90
12959;DHT22;6544;51.666;6.634;2023-06-14T03:29:57;18.70;99.90
12959;DHT22;6544;51.666;6.634;2023-06-14T03:32:24;18.70;99.90
12959;DHT22;6544;51.666;6.634;2023-06-14T03:34:51;18.60;99.90
12959;DHT22;6544;51.666;6.634;2023-06-14T03:37:18;18.60;99.90
12959;DHT22;6544;51.666;6.634;2023-06-14T03:39:45;18.50;99.90
12959;DHT22;6544;51.666;6.634;2023-06-14T03:42:14;18.50;99.90
12959;DHT22;6544;51.666;6.634;2023-06-14T03:44:41;18.50;99.90
12959;DHT22;6544;51.666;6.634;2023-06-14T03:47:08;18.40;99.90
12959;DHT22;6544;51.666;6.634;2023-06-14T03:49:35;18.40;99.90
12959;DHT22;6544;51.666;6.634;2023-06-14T03:52:04;18.30;99.90
12959;DHT22;6544;51.666;6.634;2023-06-14T03:54:30;18.30;99.90
12959;DHT22;6544;51.666;6.634;2023-06-14T03:56:58;18.20;99.90
12959;DHT22;6544;51.666;6.634;2023-06-14T03:59:26;18.00;99.90
12959;DHT22;6544;51.666;6.634;2023-06-14T04:01:54;17.90;99.90
12959;DHT22;6544;51.666;6.634;2023-06-14T04:04:21;18.00;99.90
12959;DHT22;6544;51.666;6.634;2023-06-14T04:06:54;18.10;99.90
12959;DHT22;6544;51.666;6.634;2023-06-14T04:09:22;18.00;99.90
12959;DHT22;6544;51.666;6.634;2023-06-14T04:11:50;17.80;99.90
12959;DHT22;6544;51.666;6.634;2023-06-14T04:14:18;18.00;99.90
12959;DHT22;6544;51.666;6.634;2023-06-14T04:16:46;18.00;99.90
12959;DHT22;6544;51.666;6.634;2023-06-14T04:19:14;18.00;99.90
12959;DHT22;6544;51.666;6.634;2023-06-14T04:21:40;18.00;99.90
12959;DHT22;6544;51.666;6.634;2023-06-14T04:24:08;18.00;99.90
12959;DHT22;6544;51.666;6.634;2023-06-14T04:26:38;18.00;99.90
12959;DHT22;6544;51.666;6.634;2023-06-14T04:29:05;18.00;99.90
12959;DHT22;6544;51.666;6.634;2023-06-14T04:31:33;18.10;99.90
12959;DHT22;6544;51.666;6.634;2023-06-14T04:34:04;18.00;99.90
12959;DHT22;6544;51.666;6.634;2023-06-14T04:36:32;18.10;99.90
12959;DHT22;6544;51.666;6.634;2023-06-14T04:39:00;17.90;99.90
12959;DHT22;6544;51.666;6.634;2023-06-14T04:41:28;18.00;99.90
12959;DHT22;6544;51.666;6.634;2023-06-14T04:43:56;18.00;99.90
12959;DHT22;6544;51.666;6.634;2023-06-14T04:46:27;17.80;99.90
12959;DHT22;6544;51.666;6.634;2023-06-14T04:48:54;17.80;99.90
12959;DHT22;6544;51.666;6.634;2023-06-14T04:51:23;17.90;99.90
12959;DHT22;6544;51.666;6.634;2023-06-14T04:53:55;17.80;99.90
12959;DHT22;6544;51.666;6.634;2023-06-14T04:56:24;17.80;99.90
12959;DHT22;6544;51.666;6.634;2023-06-14T04:58:51;17.90;99.90
12959;DHT22;6544;51.666;6.634;2023-06-14T05:01:18;17.90;99.90
12959;DHT22;6544;51.666;6.634;2023-06-14T05:03:46;18.00;99.90
12959;DHT22;6544;51.666;6.634;2023-06-14T05:06:14;18.00;99.90
12959;DHT22;6544;51.666;6.634;2023-06-14T05:08:45;18.00;99.90
12959;DHT22;6544;51.666;6.634;2023-06-14T05:11:12;18.00;99.90
12959;DHT22;6544;51.666;6.634;2023-06-14T05:13:39;18.00;99.90
12959;DHT22;6544;51.666;6.634;2023-06-14T05:16:07;18.00;99.90
12959;DHT22;6544;51.666;6.634;2023-06-14T05:18:34;18.10;99.90
12959;DHT22;6544;51.666;6.634;2023-06-14T05:21:01;18.10;99.90
12959;DHT22;6544;51.666;6.634;2023-06-14T05:23:30;18.10;99.90
12959;DHT22;6544;51.666;6.634;2023-06-14T05:25:58;18.20;99.90
12959;DHT22;6544;51.666;6.634;2023-06-14T05:28:25;18.30;99.90
12959;DHT22;6544;51.666;6.634;2023-06-14T05:30:51;18.30;99.90
12959;DHT22;6544;51.666;6.634;2023-06-14T05:33:18;18.40;99.90
12959;DHT22;6544;51.666;6.634;2023-06-14T05:35:45;18.50;99.90
12959;DHT22;6544;51.666;6.634;2023-06-14T05:38:12;18.50;99.90
12959;DHT22;6544;51.666;6.634;2023-06-14T05:40:39;18.60;99.90
12959;DHT22;6544;51.666;6.634;2023-06-14T05:43:08;18.60;99.90
12959;DHT22;6544;51.666;6.634;2023-06-14T05:45:36;18.70;99.90
12959;DHT22;6544;51.666;6.634;2023-06-14T05:48:03;18.70;99.90
12959;DHT22;6544;51.666;6.634;2023-06-14T05:50:30;18.80;99.90
12959;DHT22;6544;51.666;6.634;2023-06-14T05:52:57;18.80;99.90
12959;DHT22;6544;51.666;6.634;2023-06-14T05:55:24;18.90;99.90
12959;DHT22;6544;51.666;6.634;2023-06-14T05:57:51;19.00;99.90
12959;DHT22;6544;51.666;6.634;2023-06-14T06:00:20;19.00;99.90
12959;DHT22;6544;51.666;6.634;2023-06-14T06:02:47;19.10;99.90
12959;DHT22;6544;51.666;6.634;2023-06-14T06:05:18;19.20;99.90
12959;DHT22;6544;51.666;6.634;2023-06-14T06:07:46;19.20;99.90
12959;DHT22;6544;51.666;6.634;2023-06-14T06:10:13;19.30;99.90
12959;DHT22;6544;51.666;6.634;2023-06-14T06:12:41;19.40;99.90
12959;DHT22;6544;51.666;6.634;2023-06-14T06:15:08;19.50;99.90
12959;DHT22;6544;51.666;6.634;2023-06-14T06:17:38;19.50;99.90
12959;DHT22;6544;51.666;6.634;2023-06-14T06:20:06;19.60;99.90
12959;DHT22;6544;51.666;6.634;2023-06-14T06:22:35;19.70;99.90
12959;DHT22;6544;51.666;6.634;2023-06-14T06:25:01;19.80;99.90
12959;DHT22;6544;51.666;6.634;2023-06-14T06:27:29;19.90;99.90
12959;DHT22;6544;51.666;6.634;2023-06-14T06:29:56;19.90;99.90
12959;DHT22;6544;51.666;6.634;2023-06-14T06:32:22;19.80;99.90
12959;DHT22;6544;51.666;6.634;2023-06-14T06:34:51;19.80;99.90
12959;DHT22;6544;51.666;6.634;2023-06-14T06:37:18;19.90;99.90
12959;DHT22;6544;51.666;6.634;2023-06-14T06:39:45;20.00;99.90
12959;DHT22;6544;51.666;6.634;2023-06-14T06:42:13;20.10;99.90
12959;DHT22;6544;51.666;6.634;2023-06-14T06:44:41;20.20;99.90
12959;DHT22;6544;51.666;6.634;2023-06-14T06:47:08;20.30;99.90
12959;DHT22;6544;51.666;6.634;2023-06-14T06:49:35;20.40;99.90
12959;DHT22;6544;51.666;6.634;2023-06-14T06:52:05;20.60;99.90
12959;DHT22;6544;51.666;6.634;2023-06-14T06:54:32;20.60;99.90
12959;DHT22;6544;51.666;6.634;2023-06-14T06:56:59;20.70;99.90
12959;DHT22;6544;51.666;6.634;2023-06-14T06:59:27;20.70;99.90
12959;DHT22;6544;51.666;6.634;2023-06-14T07:01:54;20.80;99.90
12959;DHT22;6544;51.666;6.634;2023-06-14T07:04:20;20.80;99.90
12959;DHT22;6544;51.666;6.634;2023-06-14T07:06:47;20.80;99.90
12959;DHT22;6544;51.666;6.634;2023-06-14T07:09:16;21.00;99.90
12959;DHT22;6544;51.666;6.634;2023-06-14T07:11:44;21.20;99.90
12959;DHT22;6544;51.666;6.634;2023-06-14T07:14:11;21.30;99.90
12959;DHT22;6544;51.666;6.634;2023-06-14T07:16:38;21.30;99.90
12959;DHT22;6544;51.666;6.634;2023-06-14T07:19:06;21.30;99.90
12959;DHT22;6544;51.666;6.634;2023-06-14T07:21:34;21.40;99.90
12959;DHT22;6544;51.666;6.634;2023-06-14T07:24:03;21.40;99.90
12959;DHT22;6544;51.666;6.634;2023-06-14T07:26:32;21.40;99.90
12959;DHT22;6544;51.666;6.634;2023-06-14T07:28:59;21.50;99.90
12959;DHT22;6544;51.666;6.634;2023-06-14T07:31:26;21.40;99.90
12959;DHT22;6544;51.666;6.634;2023-06-14T07:33:53;21.60;99.90
12959;DHT22;6544;51.666;6.634;2023-06-14T07:36:20;21.60;99.90
12959;DHT22;6544;51.666;6.634;2023-06-14T07:38:47;21.60;99.90
12959;DHT22;6544;51.666;6.634;2023-06-14T07:41:14;21.60;99.90
12959;DHT22;6544;51.666;6.634;2023-06-14T07:43:45;21.80;99.90
12959;DHT22;6544;51.666;6.634;2023-06-14T07:46:12;21.80;99.90
12959;DHT22;6544;51.666;6.634;2023-06-14T07:48:39;21.90;99.90
12959;DHT22;6544;51.666;6.634;2023-06-14T07:51:05;22.00;99.90
12959;DHT22;6544;51.666;6.634;2023-06-14T07:53:32;22.00;99.90
12959;DHT22;6544;51.666;6.634;2023-06-14T07:56:00;22.10;99.90
12959;DHT22;6544;51.666;6.634;2023-06-14T07:58:28;22.00;99.90
12959;DHT22;6544;51.666;6.634;2023-06-14T08:00:56;22.10;99.90
12959;DHT22;6544;51.666;6.634;2023-06-14T08:03:23;22.10;99.90
12959;DHT22;6544;51.666;6.634;2023-06-14T08:05:50;22.10;99.90
12959;DHT22;6544;51.666;6.634;2023-06-14T08:08:17;22.00;99.90
12959;DHT22;6544;51.666;6.634;2023-06-14T08:10:44;22.20;99.90
12959;DHT22;6544;51.666;6.634;2023-06-14T08:13:11;22.20;99.90
12959;DHT22;6544;51.666;6.634;2023-06-14T08:15:38;22.20;99.90
12959;DHT22;6544;51.666;6.634;2023-06-14T08:18:07;22.20;99.90
12959;DHT22;6544;51.666;6.634;2023-06-14T08:20:33;22.30;99.90
12959;DHT22;6544;51.666;6.634;2023-06-14T08:23:01;22.40;99.90
12959;DHT22;6544;51.666;6.634;2023-06-14T08:25:29;22.50;99.90
12959;DHT22;6544;51.666;6.634;2023-06-14T08:27:56;22.60;99.90
12959;DHT22;6544;51.666;6.634;2023-06-14T08:30:23;22.50;99.90
12959;DHT22;6544;51.666;6.634;2023-06-14T08:32:50;22.50;99.90
12959;DHT22;6544;51.666;6.634;2023-06-14T08:35:18;22.30;99.90
12959;DHT22;6544;51.666;6.634;2023-06-14T08:37:45;22.50;99.90
12959;DHT22;6544;51.666;6.634;2023-06-14T08:40:18;22.60;99.90
12959;DHT22;6544;51.666;6.634;2023-06-14T08:42:48;22.60;99.90
12959;DHT22;6544;51.666;6.634;2023-06-14T08:45:16;22.70;99.90
12959;DHT22;6544;51.666;6.634;2023-06-14T08:47:44;22.80;99.90
12959;DHT22;6544;51.666;6.634;2023-06-14T08:50:12;22.60;99.90
12959;DHT22;6544;51.666;6.634;2023-06-14T08:52:45;22.80;99.90
12959;DHT22;6544;51.666;6.634;2023-06-14T08:55:16;22.90;99.90
12959;DHT22;6544;51.666;6.634;2023-06-14T08:57:46;23.10;99.90
12959;DHT22;6544;51.666;6.634;2023-06-14T09:00:14;23.10;99.90
12959;DHT22;6544;51.666;6.634;2023-06-14T09:02:41;22.90;99.90
12959;DHT22;6544;51.666;6.634;2023-06-14T09:05:09;23.00;99.90
12959;DHT22;6544;51.666;6.634;2023-06-14T09:07:39;22.80;99.90
12959;DHT22;6544;51.666;6.634;2023-06-14T09:10:10;23.10;99.90
12959;DHT22;6544;51.666;6.634;2023-06-14T09:12:37;23.20;99.90
12959;DHT22;6544;51.666;6.634;2023-06-14T09:15:06;23.20;99.90
12959;DHT22;6544;51.666;6.634;2023-06-14T09:17:34;23.20;99.90
12959;DHT22;6544;51.666;6.634;2023-06-14T09:20:02;23.30;99.90
12959;DHT22;6544;51.666;6.634;2023-06-14T09:22:33;23.30;99.90
12959;DHT22;6544;51.666;6.634;2023-06-14T09:25:00;23.10;99.90
12959;DHT22;6544;51.666;6.634;2023-06-14T09:27:29;23.10;99.90
12959;DHT22;6544;51.666;6.634;2023-06-14T09:29:56;23.30;99.90
12959;DHT22;6544;51.666;6.634;2023-06-14T09:32:23;23.40;99.90
12959;DHT22;6544;51.666;6.634;2023-06-14T09:34:51;23.50;99.90
12959;DHT22;6544;51.666;6.634;2023-06-14T09:37:27;23.50;99.90
12959;DHT22;6544;51.666;6.634;2023-06-14T09:39:55;23.60;99.90
12959;DHT22;6544;51.666;6.634;2023-06-14T09:42:22;23.60;99.90
12959;DHT22;6544;51.666;6.634;2023-06-14T09:44:56;23.50;99.90
12959;DHT22;6544;51.666;6.634;2023-06-14T09:47:24;23.50;99.90
12959;DHT22;6544;51.666;6.634;2023-06-14T09:49:51;23.50;99.90
12959;DHT22;6544;51.666;6.634;2023-06-14T09:52:21;23.30;99.90
12959;DHT22;6544;51.666;6.634;2023-06-14T09:54:49;23.50;99.90
12959;DHT22;6544;51.666;6.634;2023-06-14T09:57:20;23.70;99.90
12959;DHT22;6544;51.666;6.634;2023-06-14T09:59:48;23.50;99.90
12959;DHT22;6544;51.666;6.634;2023-06-14T10:02:23;23.50;99.90
12959;DHT22;6544;51.666;6.634;2023-06-14T10:04:57;23.50;99.90
12959;DHT22;6544;51.666;6.634;2023-06-14T10:07:26;23.60;99.90
12959;DHT22;6544;51.666;6.634;2023-06-14T10:09:56;23.60;99.90
12959;DHT22;6544;51.666;6.634;2023-06-14T10:12:24;23.60;99.90
12959;DHT22;6544;51.666;6.634;2023-06-14T10:14:51;23.70;99.90
12959;DHT22;6544;51.666;6.634;2023-06-14T10:17:26;23.90;99.90
12959;DHT22;6544;51.666;6.634;2023-06-14T10:20:07;24.10;99.90
12959;DHT22;6544;51.666;6.634;2023-06-14T10:22:42;24.10;99.90
12959;DHT22;6544;51.666;6.634;2023-06-14T10:25:26;24.20;99.90
12959;DHT22;6544;51.666;6.634;2023-06-14T10:28:02;24.30;99.90
12959;DHT22;6544;51.666;6.634;2023-06-14T10:30:29;24.30;99.90
12959;DHT22;6544;51.666;6.634;2023-06-14T10:33:07;24.50;99.90
12959;DHT22;6544;51.666;6.634;2023-06-14T10:35:35;24.60;99.90
12959;DHT22;6544;51.666;6.634;2023-06-14T10:38:09;24.70;99.90
12959;DHT22;6544;51.666;6.634;2023-06-14T10:40:36;24.70;99.90
12959;DHT22;6544;51.666;6.634;2023-06-14T10:43:21;24.50;99.90
12959;DHT22;6544;51.666;6.634;2023-06-14T10:46:14;24.70;99.90
12959;DHT22;6544;51.666;6.634;2023-06-14T10:48:43;24.80;99.90
12959;DHT22;6544;51.666;6.634;2023-06-14T10:51:18;24.70;99.90
12959;DHT22;6544;51.666;6.634;2023-06-14T10:53:50;24.70;99.90
12959;DHT22;6544;51.666;6.634;2023-06-14T10:56:24;24.70;99.90
12959;DHT22;6544;51.666;6.634;2023-06-14T10:58:54;24.80;99.90
12959;DHT22;6544;51.666;6.634;2023-06-14T11:01:32;24.80;99.90
12959;DHT22;6544;51.666;6.634;2023-06-14T11:04:08;24.80;99.90
12959;DHT22;6544;51.666;6.634;2023-06-14T11:06:46;24.70;99.90
12959;DHT22;6544;51.666;6.634;2023-06-14T11:12:14;24.90;99.90
12959;DHT22;6544;51.666;6.634;2023-06-14T11:14:46;24.70;99.90
12959;DHT22;6544;51.666;6.634;2023-06-14T11:17:13;24.70;99.90
12959;DHT22;6544;51.666;6.634;2023-06-14T11:19:42;24.80;99.90
12959;DHT22;6544;51.666;6.634;2023-06-14T11:22:09;25.00;99.90
12959;DHT22;6544;51.666;6.634;2023-06-14T11:24:36;25.00;99.90
12959;DHT22;6544;51.666;6.634;2023-06-14T11:27:03;25.10;99.90
12959;DHT22;6544;51.666;6.634;2023-06-14T11:29:31;25.10;99.90
12959;DHT22;6544;51.666;6.634;2023-06-14T11:31:58;25.40;99.90
12959;DHT22;6544;51.666;6.634;2023-06-14T11:34:25;25.60;99.90
12959;DHT22;6544;51.666;6.634;2023-06-14T11:36:54;25.80;99.90
12959;DHT22;6544;51.666;6.634;2023-06-14T11:39:24;25.90;99.90
12959;DHT22;6544;51.666;6.634;2023-06-14T11:41:51;26.00;99.90
12959;DHT22;6544;51.666;6.634;2023-06-14T11:44:18;26.20;99.90
12959;DHT22;6544;51.666;6.634;2023-06-14T11:46:45;26.00;99.90
12959;DHT22;6544;51.666;6.634;2023-06-14T11:49:12;26.30;99.90
12959;DHT22;6544;51.666;6.634;2023-06-14T11:51:39;26.40;99.90
12959;DHT22;6544;51.666;6.634;2023-06-14T11:54:07;26.20;99.90
12959;DHT22;6544;51.666;6.634;2023-06-14T11:56:37;26.30;99.90
12959;DHT22;6544;51.666;6.634;2023-06-14T11:59:04;26.20;99.90
12959;DHT22;6544;51.666;6.634;2023-06-14T12:01:31;26.40;99.90
12959;DHT22;6544;51.666;6.634;2023-06-14T12:03:59;26.40;99.90
12959;DHT22;6544;51.666;6.634;2023-06-14T12:06:30;26.70;99.90
12959;DHT22;6544;51.666;6.634;2023-06-14T12:08:59;26.80;99.90
12959;DHT22;6544;51.666;6.634;2023-06-14T12:11:33;27.10;99.90
12959;DHT22;6544;51.666;6.634;2023-06-14T12:14:02;27.20;99.90
12959;DHT22;6544;51.666;6.634;2023-06-14T12:16:33;27.20;99.90
12959;DHT22;6544;51.666;6.634;2023-06-14T12:19:07;27.10;99.90
12959;DHT22;6544;51.666;6.634;2023-06-14T12:21:37;27.10;99.90
12959;DHT22;6544;51.666;6.634;2023-06-14T12:24:06;27.30;99.90
12959;DHT22;6544;51.666;6.634;2023-06-14T12:26:38;27.40;99.90
12959;DHT22;6544;51.666;6.634;2023-06-14T12:29:05;27.50;99.90
12959;DHT22;6544;51.666;6.634;2023-06-14T12:31:33;27.30;99.90
12959;DHT22;6544;51.666;6.634;2023-06-14T12:34:00;27.60;99.90
12959;DHT22;6544;51.666;6.634;2023-06-14T12:36:27;28.00;99.90
12959;DHT22;6544;51.666;6.634;2023-06-14T12:38:54;27.90;99.90
12959;DHT22;6544;51.666;6.634;2023-06-14T12:41:21;28.00;99.90
12959;DHT22;6544;51.666;6.634;2023-06-14T12:43:49;27.50;99.90
12959;DHT22;6544;51.666;6.634;2023-06-14T12:46:16;27.40;99.90
12959;DHT22;6544;51.666;6.634;2023-06-14T12:48:43;27.60;99.90
12959;DHT22;6544;51.666;6.634;2023-06-14T12:51:10;27.70;99.90
12959;DHT22;6544;51.666;6.634;2023-06-14T12:53:37;27.70;99.90
12959;DHT22;6544;51.666;6.634;2023-06-14T12:56:04;28.10;99.90
12959;DHT22;6544;51.666;6.634;2023-06-14T12:58:31;27.50;99.90
12959;DHT22;6544;51.666;6.634;2023-06-14T13:00:59;27.60;99.90
12959;DHT22;6544;51.666;6.634;2023-06-14T13:03:26;27.30;99.90
12959;DHT22;6544;51.666;6.634;2023-06-14T13:05:53;27.50;99.90
12959;DHT22;6544;51.666;6.634;2023-06-14T13:08:20;27.80;99.90
12959;DHT22;6544;51.666;6.634;2023-06-14T13:10:48;27.50;99.90
12959;DHT22;6544;51.666;6.634;2023-06-14T13:13:14;27.80;99.90
12959;DHT22;6544;51.666;6.634;2023-06-14T13:15:42;28.00;99.90
12959;DHT22;6544;51.666;6.634;2023-06-14T13:18:10;27.30;99.90
12959;DHT22;6544;51.666;6.634;2023-06-14T13:20:38;27.20;99.90
12959;DHT22;6544;51.666;6.634;2023-06-14T13:23:05;27.10;99.90
12959;DHT22;6544;51.666;6.634;2023-06-14T13:25:33;26.70;99.90
12959;DHT22;6544;51.666;6.634;2023-06-14T13:28:00;27.20;99.90
12959;DHT22;6544;51.666;6.634;2023-06-14T13:30:27;27.50;99.90
12959;DHT22;6544;51.666;6.634;2023-06-14T13:32:54;27.90;99.90
12959;DHT22;6544;51.666;6.634;2023-06-14T13:35:22;28.20;99.90
12959;DHT22;6544;51.666;6.634;2023-06-14T13:37:50;28.30;99.90
12959;DHT22;6544;51.666;6.634;2023-06-14T13:40:17;28.10;99.90
12959;DHT22;6544;51.666;6.634;2023-06-14T13:42:43;27.70;99.90
12959;DHT22;6544;51.666;6.634;2023-06-14T13:45:11;28.20;99.90
12959;DHT22;6544;51.666;6.634;2023-06-14T13:47:38;28.40;99.90
12959;DHT22;6544;51.666;6.634;2023-06-14T13:50:06;28.30;99.90
12959;DHT22;6544;51.666;6.634;2023-06-14T13:52:35;28.20;99.90
12959;DHT22;6544;51.666;6.634;2023-06-14T13:55:02;28.00;99.90
12959;DHT22;6544;51.666;6.634;2023-06-14T13:57:29;27.80;99.90
12959;DHT22;6544;51.666;6.634;2023-06-14T13:59:56;27.80;99.90
12959;DHT22;6544;51.666;6.634;2023-06-14T14:02:27;27.50;99.90
12959;DHT22;6544;51.666;6.634;2023-06-14T14:04:54;27.00;99.90
12959;DHT22;6544;51.666;6.634;2023-06-14T14:07:21;27.00;99.90
12959;DHT22;6544;51.666;6.634;2023-06-14T14:09:50;26.60;99.90
12959;DHT22;6544;51.666;6.634;2023-06-14T14:12:18;26.50;99.90
12959;DHT22;6544;51.666;6.634;2023-06-14T14:14:45;26.60;99.90
12959;DHT22;6544;51.666;6.634;2023-06-14T14:17:13;26.40;99.90
12959;DHT22;6544;51.666;6.634;2023-06-14T14:19:39;26.60;99.90
12959;DHT22;6544;51.666;6.634;2023-06-14T14:22:06;26.50;99.90
12959;DHT22;6544;51.666;6.634;2023-06-14T14:24:34;26.40;99.90
12959;DHT22;6544;51.666;6.634;2023-06-14T14:27:02;26.30;99.90
12959;DHT22;6544;51.666;6.634;2023-06-14T14:29:29;26.00;99.90
12959;DHT22;6544;51.666;6.634;2023-06-14T14:31:56;26.00;99.90
12959;DHT22;6544;51.666;6.634;2023-06-14T14:34:24;26.20;99.90
12959;DHT22;6544;51.666;6.634;2023-06-14T14:36:51;26.10;99.90
12959;DHT22;6544;51.666;6.634;2023-06-14T14:39:18;26.20;99.90
12959;DHT22;6544;51.666;6.634;2023-06-14T14:41:46;26.10;99.90
12959;DHT22;6544;51.666;6.634;2023-06-14T14:44:14;26.10;99.90
12959;DHT22;6544;51.666;6.634;2023-06-14T14:46:41;26.10;99.90
12959;DHT22;6544;51.666;6.634;2023-06-14T14:49:09;25.80;99.90
12959;DHT22;6544;51.666;6.634;2023-06-14T14:51:36;25.70;99.90
12959;DHT22;6544;51.666;6.634;2023-06-14T14:54:04;25.70;99.90
12959;DHT22;6544;51.666;6.634;2023-06-14T14:56:31;25.30;99.90
12959;DHT22;6544;51.666;6.634;2023-06-14T14:58:58;25.40;99.90
12959;DHT22;6544;51.666;6.634;2023-06-14T15:01:26;25.40;99.90
12959;DHT22;6544;51.666;6.634;2023-06-14T15:03:53;25.30;99.90
12959;DHT22;6544;51.666;6.634;2023-06-14T15:06:20;25.30;99.90
12959;DHT22;6544;51.666;6.634;2023-06-14T15:08:47;25.20;99.90
12959;DHT22;6544;51.666;6.634;2023-06-14T15:11:14;25.00;99.90
12959;DHT22;6544;51.666;6.634;2023-06-14T15:13:41;25.10;99.90
12959;DHT22;6544;51.666;6.634;2023-06-14T15:16:08;24.80;99.90
12959;DHT22;6544;51.666;6.634;2023-06-14T15:18:36;25.00;99.90
12959;DHT22;6544;51.666;6.634;2023-06-14T15:21:03;25.10;99.90
12959;DHT22;6544;51.666;6.634;2023-06-14T15:23:30;25.20;99.90
12959;DHT22;6544;51.666;6.634;2023-06-14T15:25:57;25.10;99.90
12959;DHT22;6544;51.666;6.634;2023-06-14T15:28:24;25.10;99.90
12959;DHT22;6544;51.666;6.634;2023-06-14T15:30:54;25.10;99.90
12959;DHT22;6544;51.666;6.634;2023-06-14T15:33:20;25.10;99.90
12959;DHT22;6544;51.666;6.634;2023-06-14T15:35:49;24.90;99.90
12959;DHT22;6544;51.666;6.634;2023-06-14T15:38:16;24.90;99.90
12959;DHT22;6544;51.666;6.634;2023-06-14T15:40:43;25.00;99.90
12959;DHT22;6544;51.666;6.634;2023-06-14T15:43:11;25.10;99.90
12959;DHT22;6544;51.666;6.634;2023-06-14T15:45:38;25.10;99.90
12959;DHT22;6544;51.666;6.634;2023-06-14T15:48:05;25.00;99.90
12959;DHT22;6544;51.666;6.634;2023-06-14T15:50:33;25.00;99.90
12959;DHT22;6544;51.666;6.634;2023-06-14T15:53:01;25.00;99.90